Terminal Aerodrome Forecast
Issued by NWS

Home | Current Version | Previous Version | Text Only | Print | Product List | Glossary On
Versions: 1 2 3 4 5 6 7 8 9 10 11 12 13 14 15 16 17
744
FTUS41 KPBZ 172320
TAFZZV
TAF
KZZV 172320Z 1800/1824 15006KT P6SM BKN250
     FM180500 16005KT P6SM BKN100 WS020/21040KT
     FM181000 18009KT 6SM -RA OVC050 WS020/21040KT
     FM181300 19010KT 4SM -RA BR OVC020
     FM181600 19014G28KT P6SM BKN045
     FM182200 20014G23KT 5SM -SHRA OVC025=

USA.gov is the U.S. government's official web portal to all federal, state and local government web resources and services.